Aviation Digital Data Service (ADDS)

Output produced by TAFs form (0753 UTC 25 March 2017)
found at http://www.aviationweather.gov/adds/tafs/
 
METAR text: RJTO 250700Z 11009KT 080V140 9999 FEW030 BKN050 BKN/// 10/00 Q1018
Conditions at: RJTO (OSHIMA AIRPORT , JP) observed 0700 UTC 25 March 2017
Temperature: 10.0°C (50°F)
Dewpoint: 0.0°C (32°F) [RH = 50%]
Pressure (altimeter): 30.06 inches Hg (1018.0 mb)
Winds: from the ESE (110 degrees) at 10 MPH (9 knots; 4.7 m/s)
Visibility: 6 or more miles (10+ km)
Ceiling: 5000 feet AGL
Clouds: few clouds at 3000 feet AGL
broken clouds at 5000 feet AGL
Weather: no significant weather observed at this time